Airfield :
LOGIN :

Register | Disclaimer

   EN    FR    IT 

 










Legend :    VFR   Marginal VFR   IFR   Intensive IFR   Very Intensive IFR
Visi :
Ceiling :
>= 8 km
>= 3000ft
5 to 8 km
1000 to 3000 ft
1500m to 5 km
500 to 1000 ft
800 to 1500m
200 to 500 ft
< 800m
< 200 ft
Symbols :   Thunderstorms  Fog  Heavy snow  Heavy precipitations  Wind > 20 kt
SIGMETs :     Misc.  Thunderstorms  Icing  Turbulence  Mountain Waves  Volcanic Ashes







- Airport Elevation : 15 ft
- IATA code : GIB


LXGB - Gibraltar

CURRENT METAR :
  • 190550Z 21004KT 9999 FEW020 12/09 Q1019

EXPIRED METARs :
  • 190450Z AUTO 24002KT 9999 // BKN020/// BKN028/// 12/10 Q1019
  • 190350Z AUTO 31004KT 9999 // FEW022/// BKN034/// 12/10 Q1019

TAF AMD TAF LXGB
Valid from the 19 at 06:00 until the 19 at 15:00 UTC


190604Z 1906/1915 21004KT 9999 FEW020
TEMPO 1906/1915 SCT020
BECMG 1908/1911 09012KT
No reported NOTAMs for that airfield.
1 SIGMET reported for the Madrid FIR (LECM) :
 
Severe turbulence
LECM SIGMET 1 VALID 190400/190800 LEVA
LECM MADRID FIR/UIR SEV TURB FCST WI N4410 W00339 - N4002 W00653 - N3708 W00723 - N3626 W00625 - N4326 W00143 - N4410 W00339 FL180/300 MOV E 20KT NC=



MET'MAP, your aeronautical weather chart ! - Copyright ORBIFLY December 2007 - Disclaimer

ORBIFLY MET'MAP TEAM :

Programming & Development : Alexandra Zaïnal
Concept & Development : Baudouin d'Aumeries
Co-Development & Prog : Marc-Olivier Méhu
Technical & hardware support : Manuel Goepfert

Contact : metmap@orbifly.com




SOURCES & CREDITS :

   NOAA